sensor_id;sensor_type;location;lat;lon;timestamp;pressure;altitude;pressure_sealevel;temperature;humidity
32873;BME280;19224;52.462;16.898;2023-02-02T00:01:55;99235.38;;;4.56;100.00
32873;BME280;19224;52.462;16.898;2023-02-02T00:04:35;99237.75;;;4.63;100.00
32873;BME280;19224;52.462;16.898;2023-02-02T00:07:05;99250.07;;;4.66;100.00
32873;BME280;19224;52.462;16.898;2023-02-02T00:09:36;99239.61;;;4.62;100.00
32873;BME280;19224;52.462;16.898;2023-02-02T00:12:07;99223.78;;;4.57;100.00
32873;BME280;19224;52.462;16.898;2023-02-02T00:14:38;99225.39;;;4.61;100.00
32873;BME280;19224;52.462;16.898;2023-02-02T00:17:10;99226.20;;;4.63;100.00
32873;BME280;19224;52.462;16.898;2023-02-02T00:19:41;99224.30;;;4.66;100.00
32873;BME280;19224;52.462;16.898;2023-02-02T00:22:12;99234.16;;;4.64;100.00
32873;BME280;19224;52.462;16.898;2023-02-02T00:24:43;99218.20;;;4.63;100.00
32873;BME280;19224;52.462;16.898;2023-02-02T00:27:14;99215.61;;;4.62;100.00
32873;BME280;19224;52.462;16.898;2023-02-02T00:29:45;99226.16;;;4.64;100.00
32873;BME280;19224;52.462;16.898;2023-02-02T00:32:15;99213.84;;;4.60;100.00
32873;BME280;19224;52.462;16.898;2023-02-02T00:34:45;99204.20;;;4.58;100.00
32873;BME280;19224;52.462;16.898;2023-02-02T00:37:16;99228.11;;;4.59;100.00
32873;BME280;19224;52.462;16.898;2023-02-02T00:39:46;99208.81;;;4.53;100.00
32873;BME280;19224;52.462;16.898;2023-02-02T00:42:17;99215.48;;;4.53;100.00
32873;BME280;19224;52.462;16.898;2023-02-02T00:44:47;99198.06;;;4.56;100.00
32873;BME280;19224;52.462;16.898;2023-02-02T00:47:36;99202.72;;;4.50;100.00
32873;BME280;19224;52.462;16.898;2023-02-02T00:50:08;99201.83;;;4.51;100.00
32873;BME280;19224;52.462;16.898;2023-02-02T00:52:39;99200.42;;;4.52;100.00
32873;BME280;19224;52.462;16.898;2023-02-02T00:55:11;99192.82;;;4.53;100.00
32873;BME280;19224;52.462;16.898;2023-02-02T00:57:42;99191.89;;;4.54;100.00
32873;BME280;19224;52.462;16.898;2023-02-02T01:00:16;99197.00;;;4.60;100.00
32873;BME280;19224;52.462;16.898;2023-02-02T01:02:47;99184.73;;;4.56;100.00
32873;BME280;19224;52.462;16.898;2023-02-02T01:05:21;99186.96;;;4.55;100.00
32873;BME280;19224;52.462;16.898;2023-02-02T01:07:52;99181.13;;;4.57;100.00
32873;BME280;19224;52.462;16.898;2023-02-02T01:10:23;99179.31;;;4.58;100.00
32873;BME280;19224;52.462;16.898;2023-02-02T01:12:56;99176.73;;;4.56;100.00
32873;BME280;19224;52.462;16.898;2023-02-02T01:15:27;99178.06;;;4.56;100.00
32873;BME280;19224;52.462;16.898;2023-02-02T01:17:58;99168.55;;;4.49;100.00
32873;BME280;19224;52.462;16.898;2023-02-02T01:20:31;99168.20;;;4.47;100.00
32873;BME280;19224;52.462;16.898;2023-02-02T01:23:01;99160.44;;;4.52;100.00
32873;BME280;19224;52.462;16.898;2023-02-02T01:25:32;99156.16;;;4.48;100.00
32873;BME280;19224;52.462;16.898;2023-02-02T01:28:05;99154.02;;;4.46;100.00
32873;BME280;19224;52.462;16.898;2023-02-02T01:30:35;99153.14;;;4.46;100.00
32873;BME280;19224;52.462;16.898;2023-02-02T01:33:06;99149.19;;;4.44;100.00
32873;BME280;19224;52.462;16.898;2023-02-02T01:35:36;99143.05;;;4.42;100.00
32873;BME280;19224;52.462;16.898;2023-02-02T01:38:08;99133.85;;;4.39;100.00
32873;BME280;19224;52.462;16.898;2023-02-02T01:40:50;99131.14;;;4.41;100.00
32873;BME280;19224;52.462;16.898;2023-02-02T01:43:24;99135.59;;;4.40;100.00
32873;BME280;19224;52.462;16.898;2023-02-02T01:45:57;99124.66;;;4.36;100.00
32873;BME280;19224;52.462;16.898;2023-02-02T01:48:31;99124.00;;;4.41;100.00
32873;BME280;19224;52.462;16.898;2023-02-02T01:51:06;99115.59;;;4.40;100.00
32873;BME280;19224;52.462;16.898;2023-02-02T01:53:38;99109.06;;;4.37;100.00
32873;BME280;19224;52.462;16.898;2023-02-02T01:56:13;99106.45;;;4.36;100.00
32873;BME280;19224;52.462;16.898;2023-02-02T01:58:44;99102.00;;;4.36;100.00
32873;BME280;19224;52.462;16.898;2023-02-02T02:01:15;99092.72;;;4.35;100.00
32873;BME280;19224;52.462;16.898;2023-02-02T02:03:47;99096.32;;;4.34;100.00
32873;BME280;19224;52.462;16.898;2023-02-02T02:06:18;99086.81;;;4.38;100.00
32873;BME280;19224;52.462;16.898;2023-02-02T02:09:05;99086.11;;;4.33;100.00
32873;BME280;19224;52.462;16.898;2023-02-02T02:11:36;99082.59;;;4.33;100.00
32873;BME280;19224;52.462;16.898;2023-02-02T02:14:09;99077.66;;;4.34;100.00
32873;BME280;19224;52.462;16.898;2023-02-02T02:20:27;99067.45;;;4.33;100.00
32873;BME280;19224;52.462;16.898;2023-02-02T02:27:18;99066.61;;;4.33;100.00
32873;BME280;19224;52.462;16.898;2023-02-02T02:33:08;99049.47;;;4.28;100.00
32873;BME280;19224;52.462;16.898;2023-02-02T02:40:48;99036.36;;;4.12;100.00
32873;BME280;19224;52.462;16.898;2023-02-02T02:45:57;99029.52;;;4.05;100.00
32873;BME280;19224;52.462;16.898;2023-02-02T02:48:29;99021.76;;;3.99;100.00
32873;BME280;19224;52.462;16.898;2023-02-02T02:54:21;99006.84;;;3.95;100.00
32873;BME280;19224;52.462;16.898;2023-02-02T03:06:37;98993.33;;;3.78;100.00
32873;BME280;19224;52.462;16.898;2023-02-02T03:09:11;98973.86;;;3.76;100.00
32873;BME280;19224;52.462;16.898;2023-02-02T03:11:42;98974.11;;;3.70;100.00
32873;BME280;19224;52.462;16.898;2023-02-02T03:14:13;98960.41;;;3.69;100.00
32873;BME280;19224;52.462;16.898;2023-02-02T03:16:44;98952.95;;;3.67;100.00
32873;BME280;19224;52.462;16.898;2023-02-02T03:19:14;98957.20;;;3.71;100.00
32873;BME280;19224;52.462;16.898;2023-02-02T03:21:45;98949.75;;;3.69;100.00
32873;BME280;19224;52.462;16.898;2023-02-02T03:24:15;98950.02;;;3.73;100.00
32873;BME280;19224;52.462;16.898;2023-02-02T03:26:46;98958.02;;;3.73;100.00
32873;BME280;19224;52.462;16.898;2023-02-02T03:29:18;98944.48;;;3.79;100.00
32873;BME280;19224;52.462;16.898;2023-02-02T03:31:49;98932.41;;;3.81;100.00
32873;BME280;19224;52.462;16.898;2023-02-02T03:34:20;98942.89;;;3.85;100.00
32873;BME280;19224;52.462;16.898;2023-02-02T03:36:51;98942.89;;;3.85;100.00
32873;BME280;19224;52.462;16.898;2023-02-02T03:39:21;98941.42;;;3.88;100.00
32873;BME280;19224;52.462;16.898;2023-02-02T03:41:52;98931.12;;;3.91;100.00
32873;BME280;19224;52.462;16.898;2023-02-02T03:44:23;98927.83;;;3.96;100.00
32873;BME280;19224;52.462;16.898;2023-02-02T03:46:55;98940.75;;;3.95;100.00
32873;BME280;19224;52.462;16.898;2023-02-02T03:49:25;98920.16;;;3.98;100.00
32873;BME280;19224;52.462;16.898;2023-02-02T03:51:56;98937.81;;;4.01;100.00
32873;BME280;19224;52.462;16.898;2023-02-02T03:54:26;98936.36;;;4.04;100.00
32873;BME280;19224;52.462;16.898;2023-02-02T03:56:57;98937.91;;;4.09;100.00
32873;BME280;19224;52.462;16.898;2023-02-02T03:59:27;98942.30;;;4.10;100.00
32873;BME280;19224;52.462;16.898;2023-02-02T04:01:58;98927.37;;;4.06;100.00
32873;BME280;19224;52.462;16.898;2023-02-02T04:04:28;98935.77;;;4.07;100.00
32873;BME280;19224;52.462;16.898;2023-02-02T04:06:59;98951.84;;;4.06;100.00
32873;BME280;19224;52.462;16.898;2023-02-02T04:09:29;98943.53;;;4.13;100.00
32873;BME280;19224;52.462;16.898;2023-02-02T04:12:00;98939.80;;;4.17;100.00
32873;BME280;19224;52.462;16.898;2023-02-02T04:14:31;98942.99;;;4.15;100.00
32873;BME280;19224;52.462;16.898;2023-02-02T04:17:01;98929.14;;;4.17;100.00
32873;BME280;19224;52.462;16.898;2023-02-02T04:19:32;98950.05;;;4.16;100.00
32873;BME280;19224;52.462;16.898;2023-02-02T04:22:02;98926.74;;;4.21;100.00
32873;BME280;19224;52.462;16.898;2023-02-02T04:24:33;98932.07;;;4.21;100.00
32873;BME280;19224;52.462;16.898;2023-02-02T04:27:03;98956.05;;;4.21;100.00
32873;BME280;19224;52.462;16.898;2023-02-02T04:29:34;98944.36;;;4.25;100.00
32873;BME280;19224;52.462;16.898;2023-02-02T04:32:05;98954.92;;;4.27;100.00
32873;BME280;19224;52.462;16.898;2023-02-02T04:34:35;98951.28;;;4.29;100.00
32873;BME280;19224;52.462;16.898;2023-02-02T04:37:06;98961.41;;;4.31;100.00
32873;BME280;19224;52.462;16.898;2023-02-02T04:39:37;98956.21;;;4.28;100.00
32873;BME280;19224;52.462;16.898;2023-02-02T04:42:08;98967.27;;;4.29;100.00
32873;BME280;19224;52.462;16.898;2023-02-02T04:44:38;98966.73;;;4.31;100.00
32873;BME280;19224;52.462;16.898;2023-02-02T04:47:09;98984.35;;;4.35;100.00
32873;BME280;19224;52.462;16.898;2023-02-02T04:49:40;98969.30;;;4.34;100.00
32873;BME280;19224;52.462;16.898;2023-02-02T04:52:11;98964.81;;;4.35;100.00
32873;BME280;19224;52.462;16.898;2023-02-02T04:54:42;98993.55;;;4.38;100.00
32873;BME280;19224;52.462;16.898;2023-02-02T04:57:12;99012.43;;;4.32;100.00
32873;BME280;19224;52.462;16.898;2023-02-02T04:59:43;98999.38;;;4.26;100.00
32873;BME280;19224;52.462;16.898;2023-02-02T05:02:15;98992.45;;;4.32;100.00
32873;BME280;19224;52.462;16.898;2023-02-02T05:04:46;99017.36;;;4.31;100.00
32873;BME280;19224;52.462;16.898;2023-02-02T05:07:17;99011.36;;;4.26;100.00
32873;BME280;19224;52.462;16.898;2023-02-02T05:09:50;99009.77;;;4.32;100.00
32873;BME280;19224;52.462;16.898;2023-02-02T05:12:21;99007.23;;;4.29;100.00
32873;BME280;19224;52.462;16.898;2023-02-02T05:14:52;99025.35;;;4.31;100.00
32873;BME280;19224;52.462;16.898;2023-02-02T05:17:22;99035.34;;;4.26;100.00
32873;BME280;19224;52.462;16.898;2023-02-02T05:19:53;99047.47;;;4.33;100.00
32873;BME280;19224;52.462;16.898;2023-02-02T05:22:23;99033.25;;;4.34;100.00
32873;BME280;19224;52.462;16.898;2023-02-02T05:24:54;99046.57;;;4.34;100.00
32873;BME280;19224;52.462;16.898;2023-02-02T05:27:25;99085.70;;;4.32;100.00
32873;BME280;19224;52.462;16.898;2023-02-02T05:29:56;99050.57;;;4.34;100.00
32873;BME280;19224;52.462;16.898;2023-02-02T05:32:27;99105.88;;;4.39;100.00
32873;BME280;19224;52.462;16.898;2023-02-02T05:34:58;99063.54;;;4.32;100.00
32873;BME280;19224;52.462;16.898;2023-02-02T05:37:29;99070.38;;;4.27;100.00
32873;BME280;19224;52.462;16.898;2023-02-02T05:39:59;99104.13;;;4.27;100.00
32873;BME280;19224;52.462;16.898;2023-02-02T05:42:30;99085.39;;;4.30;100.00
32873;BME280;19224;52.462;16.898;2023-02-02T05:45:01;99085.97;;;4.26;100.00
32873;BME280;19224;52.462;16.898;2023-02-02T05:47:32;99094.70;;;4.18;100.00
32873;BME280;19224;52.462;16.898;2023-02-02T05:50:04;99107.05;;;4.21;100.00
32873;BME280;19224;52.462;16.898;2023-02-02T05:52:35;99093.25;;;4.21;100.00
32873;BME280;19224;52.462;16.898;2023-02-02T05:55:07;99113.23;;;4.21;100.00
32873;BME280;19224;52.462;16.898;2023-02-02T05:57:38;99133.27;;;4.31;100.00
32873;BME280;19224;52.462;16.898;2023-02-02T06:00:11;99134.33;;;4.27;100.00
32873;BME280;19224;52.462;16.898;2023-02-02T06:02:41;99128.88;;;4.30;100.00
32873;BME280;19224;52.462;16.898;2023-02-02T06:05:12;99122.87;;;4.25;100.00
32873;BME280;19224;52.462;16.898;2023-02-02T06:07:43;99162.83;;;4.25;100.00
32873;BME280;19224;52.462;16.898;2023-02-02T06:10:14;99180.55;;;4.26;100.00
32873;BME280;19224;52.462;16.898;2023-02-02T06:12:45;99164.80;;;4.32;100.00
32873;BME280;19224;52.462;16.898;2023-02-02T06:15:15;99177.17;;;4.21;100.00
32873;BME280;19224;52.462;16.898;2023-02-02T06:17:46;99218.66;;;4.28;100.00
32873;BME280;19224;52.462;16.898;2023-02-02T06:20:17;99193.23;;;4.20;100.00
32873;BME280;19224;52.462;16.898;2023-02-02T06:22:47;99202.37;;;4.13;100.00
32873;BME280;19224;52.462;16.898;2023-02-02T06:25:18;99209.79;;;4.16;100.00
32873;BME280;19224;52.462;16.898;2023-02-02T06:27:48;99229.17;;;4.08;100.00
32873;BME280;19224;52.462;16.898;2023-02-02T06:30:20;99218.63;;;4.05;100.00
32873;BME280;19224;52.462;16.898;2023-02-02T06:32:51;99247.93;;;4.05;100.00
32873;BME280;19224;52.462;16.898;2023-02-02T06:35:21;99242.45;;;4.10;100.00
32873;BME280;19224;52.462;16.898;2023-02-02T06:37:52;99261.25;;;4.05;100.00
32873;BME280;19224;52.462;16.898;2023-02-02T06:40:22;99268.92;;;4.14;100.00
32873;BME280;19224;52.462;16.898;2023-02-02T06:43:01;99255.53;;;4.16;100.00
32873;BME280;19224;52.462;16.898;2023-02-02T06:45:32;99265.70;;;4.18;100.00
32873;BME280;19224;52.462;16.898;2023-02-02T06:48:05;99279.58;;;4.14;100.00
32873;BME280;19224;52.462;16.898;2023-02-02T06:50:38;99281.84;;;4.13;100.00
32873;BME280;19224;52.462;16.898;2023-02-02T06:53:08;99289.42;;;4.12;100.00
32873;BME280;19224;52.462;16.898;2023-02-02T06:55:40;99302.13;;;4.04;100.00
32873;BME280;19224;52.462;16.898;2023-02-02T06:58:10;99310.78;;;4.11;100.00
32873;BME280;19224;52.462;16.898;2023-02-02T07:00:41;99314.52;;;4.05;100.00
32873;BME280;19224;52.462;16.898;2023-02-02T07:03:11;99313.65;;;4.18;100.00
32873;BME280;19224;52.462;16.898;2023-02-02T07:05:42;99346.30;;;4.11;100.00
32873;BME280;19224;52.462;16.898;2023-02-02T07:08:13;99335.56;;;4.13;100.00
32873;BME280;19224;52.462;16.898;2023-02-02T07:10:44;99358.28;;;4.11;100.00
32873;BME280;19224;52.462;16.898;2023-02-02T07:13:15;99349.36;;;4.12;100.00
32873;BME280;19224;52.462;16.898;2023-02-02T07:15:46;99356.43;;;4.13;100.00
32873;BME280;19224;52.462;16.898;2023-02-02T07:18:17;99346.11;;;4.16;100.00
32873;BME280;19224;52.462;16.898;2023-02-02T07:20:47;99361.23;;;4.15;100.00
32873;BME280;19224;52.462;16.898;2023-02-02T07:23:18;99372.94;;;4.11;100.00
32873;BME280;19224;52.462;16.898;2023-02-02T07:25:48;99368.50;;;4.10;100.00
32873;BME280;19224;52.462;16.898;2023-02-02T07:28:19;99375.08;;;4.13;100.00
32873;BME280;19224;52.462;16.898;2023-02-02T07:30:50;99420.04;;;4.09;100.00
32873;BME280;19224;52.462;16.898;2023-02-02T07:33:20;99388.92;;;4.11;100.00
32873;BME280;19224;52.462;16.898;2023-02-02T07:35:52;99422.26;;;4.10;100.00
32873;BME280;19224;52.462;16.898;2023-02-02T07:38:22;99395.77;;;4.05;100.00
32873;BME280;19224;52.462;16.898;2023-02-02T07:40:53;99394.84;;;4.06;100.00
32873;BME280;19224;52.462;16.898;2023-02-02T07:43:23;99403.87;;;4.02;100.00
32873;BME280;19224;52.462;16.898;2023-02-02T07:45:57;99414.59;;;3.99;100.00
32873;BME280;19224;52.462;16.898;2023-02-02T07:48:31;99407.86;;;4.02;100.00
32873;BME280;19224;52.462;16.898;2023-02-02T07:51:05;99415.11;;;3.97;100.00
32873;BME280;19224;52.462;16.898;2023-02-02T07:53:35;99434.05;;;3.88;100.00
32873;BME280;19224;52.462;16.898;2023-02-02T07:56:18;99467.44;;;3.85;100.00
32873;BME280;19224;52.462;16.898;2023-02-02T07:58:51;99443.70;;;3.92;100.00
32873;BME280;19224;52.462;16.898;2023-02-02T08:01:24;99442.30;;;3.94;100.00
32873;BME280;19224;52.462;16.898;2023-02-02T08:03:57;99495.50;;;3.97;100.00
32873;BME280;19224;52.462;16.898;2023-02-02T08:06:37;99493.75;;;3.96;100.00
32873;BME280;19224;52.462;16.898;2023-02-02T08:09:07;99513.36;;;3.93;100.00
32873;BME280;19224;52.462;16.898;2023-02-02T08:11:38;99495.56;;;3.94;100.00
32873;BME280;19224;52.462;16.898;2023-02-02T08:14:15;99488.33;;;3.84;100.00
32873;BME280;19224;52.462;16.898;2023-02-02T08:16:47;99541.02;;;3.89;100.00
32873;BME280;19224;52.462;16.898;2023-02-02T08:19:18;99491.75;;;3.89;100.00
32873;BME280;19224;52.462;16.898;2023-02-02T08:21:48;99521.66;;;3.83;100.00
32873;BME280;19224;52.462;16.898;2023-02-02T08:24:19;99518.44;;;3.86;100.00
32873;BME280;19224;52.462;16.898;2023-02-02T08:26:50;99534.02;;;3.85;100.00
32873;BME280;19224;52.462;16.898;2023-02-02T08:29:20;99556.55;;;3.88;100.00
32873;BME280;19224;52.462;16.898;2023-02-02T08:31:51;99528.11;;;3.90;100.00
32873;BME280;19224;52.462;16.898;2023-02-02T08:34:22;99534.25;;;3.92;100.00
32873;BME280;19224;52.462;16.898;2023-02-02T08:36:53;99553.88;;;3.88;100.00
32873;BME280;19224;52.462;16.898;2023-02-02T08:39:23;99538.45;;;3.99;100.00
32873;BME280;19224;52.462;16.898;2023-02-02T08:41:57;99571.06;;;4.07;100.00
32873;BME280;19224;52.462;16.898;2023-02-02T08:44:28;99567.48;;;4.08;100.00
32873;BME280;19224;52.462;16.898;2023-02-02T08:46:59;99586.12;;;4.08;100.00
32873;BME280;19224;52.462;16.898;2023-02-02T08:49:30;99603.44;;;4.08;100.00
32873;BME280;19224;52.462;16.898;2023-02-02T08:52:00;99603.03;;;4.07;100.00
32873;BME280;19224;52.462;16.898;2023-02-02T08:54:31;99619.80;;;4.11;100.00
32873;BME280;19224;52.462;16.898;2023-02-02T08:57:02;99596.85;;;4.07;100.00
32873;BME280;19224;52.462;16.898;2023-02-02T08:59:33;99601.26;;;4.08;100.00
32873;BME280;19224;52.462;16.898;2023-02-02T09:02:03;99625.10;;;4.12;100.00
32873;BME280;19224;52.462;16.898;2023-02-02T09:04:34;99617.55;;;4.12;100.00
32873;BME280;19224;52.462;16.898;2023-02-02T09:07:05;99623.26;;;4.14;100.00
32873;BME280;19224;52.462;16.898;2023-02-02T09:09:36;99635.83;;;4.09;100.00
32873;BME280;19224;52.462;16.898;2023-02-02T09:12:07;99629.73;;;4.06;100.00
32873;BME280;19224;52.462;16.898;2023-02-02T09:14:37;99642.89;;;4.10;100.00
32873;BME280;19224;52.462;16.898;2023-02-02T09:17:08;99641.56;;;4.10;100.00
32873;BME280;19224;52.462;16.898;2023-02-02T09:19:38;99646.89;;;4.10;100.00
32873;BME280;19224;52.462;16.898;2023-02-02T09:22:09;99664.66;;;4.11;100.00
32873;BME280;19224;52.462;16.898;2023-02-02T09:24:39;99659.80;;;4.09;100.00
32873;BME280;19224;52.462;16.898;2023-02-02T09:27:10;99667.25;;;4.13;100.00
32873;BME280;19224;52.462;16.898;2023-02-02T09:29:41;99686.94;;;4.23;100.00
32873;BME280;19224;52.462;16.898;2023-02-02T09:32:11;99692.69;;;4.24;100.00
32873;BME280;19224;52.462;16.898;2023-02-02T09:34:42;99691.02;;;4.35;100.00
32873;BME280;19224;52.462;16.898;2023-02-02T09:37:13;99699.49;;;4.34;100.00
32873;BME280;19224;52.462;16.898;2023-02-02T09:39:43;99721.03;;;4.41;100.00
32873;BME280;19224;52.462;16.898;2023-02-02T09:45:27;99695.97;;;4.32;100.00
32873;BME280;19224;52.462;16.898;2023-02-02T09:50:55;99707.05;;;4.33;100.00
32873;BME280;19224;52.462;16.898;2023-02-02T09:53:50;99718.63;;;4.32;100.00
32873;BME280;19224;52.462;16.898;2023-02-02T09:56:26;99708.36;;;4.49;100.00
32873;BME280;19224;52.462;16.898;2023-02-02T09:58:55;99725.17;;;4.51;100.00
32873;BME280;19224;52.462;16.898;2023-02-02T10:01:37;99719.61;;;4.58;100.00
32873;BME280;19224;52.462;16.898;2023-02-02T10:06:57;99727.78;;;4.81;100.00
32873;BME280;19224;52.462;16.898;2023-02-02T10:10:05;99734.65;;;4.90;100.00
32873;BME280;19224;52.462;16.898;2023-02-02T10:15:43;99760.37;;;4.78;100.00
32873;BME280;19224;52.462;16.898;2023-02-02T10:18:34;99758.14;;;4.77;100.00
32873;BME280;19224;52.462;16.898;2023-02-02T10:21:14;99755.85;;;4.80;100.00
32873;BME280;19224;52.462;16.898;2023-02-02T10:23:45;99760.95;;;4.73;100.00
32873;BME280;19224;52.462;16.898;2023-02-02T10:26:47;99776.95;;;4.73;100.00
32873;BME280;19224;52.462;16.898;2023-02-02T10:29:31;99771.34;;;4.67;100.00
32873;BME280;19224;52.462;16.898;2023-02-02T10:37:46;99786.08;;;4.50;100.00
32873;BME280;19224;52.462;16.898;2023-02-02T10:46:48;99816.39;;;4.62;100.00
32873;BME280;19224;52.462;16.898;2023-02-02T10:49:26;99779.87;;;4.64;100.00
32873;BME280;19224;52.462;16.898;2023-02-02T10:52:15;99814.48;;;4.67;100.00
32873;BME280;19224;52.462;16.898;2023-02-02T11:00:58;99805.05;;;4.70;100.00
32873;BME280;19224;52.462;16.898;2023-02-02T11:03:30;99840.38;;;4.78;100.00
32873;BME280;19224;52.462;16.898;2023-02-02T11:06:04;99816.79;;;4.79;100.00
32873;BME280;19224;52.462;16.898;2023-02-02T11:08:54;99846.48;;;4.67;100.00
32873;BME280;19224;52.462;16.898;2023-02-02T11:11:45;99838.95;;;4.65;100.00
32873;BME280;19224;52.462;16.898;2023-02-02T11:14:27;99864.39;;;4.78;100.00
32873;BME280;19224;52.462;16.898;2023-02-02T11:17:01;99863.91;;;4.78;100.00
32873;BME280;19224;52.462;16.898;2023-02-02T11:19:34;99848.77;;;4.64;100.00
32873;BME280;19224;52.462;16.898;2023-02-02T11:22:22;99873.47;;;4.71;100.00
32873;BME280;19224;52.462;16.898;2023-02-02T11:24:47;99866.58;;;4.78;100.00
32873;BME280;19224;52.462;16.898;2023-02-02T11:27:38;99859.27;;;4.85;100.00
32873;BME280;19224;52.462;16.898;2023-02-02T11:30:09;99880.87;;;4.76;100.00
32873;BME280;19224;52.462;16.898;2023-02-02T11:32:34;99881.63;;;4.81;100.00
32873;BME280;19224;52.462;16.898;2023-02-02T11:35:21;99903.80;;;4.83;100.00
32873;BME280;19224;52.462;16.898;2023-02-02T11:38:08;99884.20;;;4.84;100.00
32873;BME280;19224;52.462;16.898;2023-02-02T11:40:45;99901.86;;;4.88;100.00
32873;BME280;19224;52.462;16.898;2023-02-02T11:43:35;99894.55;;;4.80;100.00
32873;BME280;19224;52.462;16.898;2023-02-02T11:46:22;99889.47;;;4.71;100.00
32873;BME280;19224;52.462;16.898;2023-02-02T11:49:02;99889.66;;;4.79;100.00
32873;BME280;19224;52.462;16.898;2023-02-02T11:51:33;99926.93;;;4.66;100.00
32873;BME280;19224;52.462;16.898;2023-02-02T11:54:14;99906.84;;;4.69;100.00
32873;BME280;19224;52.462;16.898;2023-02-02T11:56:46;99903.47;;;4.63;100.00
32873;BME280;19224;52.462;16.898;2023-02-02T11:59:38;99905.16;;;4.67;100.00
32873;BME280;19224;52.462;16.898;2023-02-02T12:02:22;99923.05;;;4.62;100.00
32873;BME280;19224;52.462;16.898;2023-02-02T12:05:12;99916.56;;;4.56;100.00
32873;BME280;19224;52.462;16.898;2023-02-02T12:07:44;99917.34;;;4.44;100.00
32873;BME280;19224;52.462;16.898;2023-02-02T12:10:56;99920.54;;;4.40;100.00
32873;BME280;19224;52.462;16.898;2023-02-02T12:13:56;99922.52;;;4.32;100.00
32873;BME280;19224;52.462;16.898;2023-02-02T12:20:04;99922.50;;;4.16;100.00
32873;BME280;19224;52.462;16.898;2023-02-02T12:22:41;99931.24;;;4.21;100.00
32873;BME280;19224;52.462;16.898;2023-02-02T12:28:15;99942.06;;;4.33;100.00
32873;BME280;19224;52.462;16.898;2023-02-02T12:37:34;99954.26;;;4.25;100.00
32873;BME280;19224;52.462;16.898;2023-02-02T12:52:08;99940.53;;;4.40;100.00
32873;BME280;19224;52.462;16.898;2023-02-02T12:58:05;99967.38;;;4.50;100.00
32873;BME280;19224;52.462;16.898;2023-02-02T13:07:25;99992.59;;;4.55;100.00
32873;BME280;19224;52.462;16.898;2023-02-02T13:10:20;99987.08;;;4.60;100.00
32873;BME280;19224;52.462;16.898;2023-02-02T13:13:01;100003.58;;;4.58;100.00
32873;BME280;19224;52.462;16.898;2023-02-02T13:15:35;100009.62;;;4.49;100.00
32873;BME280;19224;52.462;16.898;2023-02-02T13:21:10;100007.34;;;4.52;100.00
32873;BME280;19224;52.462;16.898;2023-02-02T13:23:48;100010.86;;;4.52;100.00
32873;BME280;19224;52.462;16.898;2023-02-02T13:26:27;100015.39;;;4.49;100.00
32873;BME280;19224;52.462;16.898;2023-02-02T13:37:24;100038.95;;;4.30;100.00
32873;BME280;19224;52.462;16.898;2023-02-02T13:39:47;100061.48;;;4.36;100.00
32873;BME280;19224;52.462;16.898;2023-02-02T13:42:47;100068.69;;;4.31;100.00
32873;BME280;19224;52.462;16.898;2023-02-02T13:45:05;100077.61;;;4.30;100.00
32873;BME280;19224;52.462;16.898;2023-02-02T13:47:41;100071.70;;;4.18;100.00
32873;BME280;19224;52.462;16.898;2023-02-02T13:50:15;100074.96;;;4.11;100.00
32873;BME280;19224;52.462;16.898;2023-02-02T13:56:01;100076.77;;;4.28;100.00
32873;BME280;19224;52.462;16.898;2023-02-02T14:01:19;100094.37;;;4.16;100.00
32873;BME280;19224;52.462;16.898;2023-02-02T14:03:56;100101.16;;;4.10;100.00
32873;BME280;19224;52.462;16.898;2023-02-02T14:06:34;100112.83;;;4.05;100.00
32873;BME280;19224;52.462;16.898;2023-02-02T14:09:05;100119.13;;;4.02;100.00
32873;BME280;19224;52.462;16.898;2023-02-02T14:11:38;100123.65;;;3.97;100.00
32873;BME280;19224;52.462;16.898;2023-02-02T14:14:21;100129.78;;;4.02;100.00
32873;BME280;19224;52.462;16.898;2023-02-02T14:19:51;100157.02;;;3.94;100.00
32873;BME280;19224;52.462;16.898;2023-02-02T14:22:45;100144.96;;;3.97;100.00
32873;BME280;19224;52.462;16.898;2023-02-02T14:28:46;100169.85;;;3.96;100.00
32873;BME280;19224;52.462;16.898;2023-02-02T14:31:40;100185.98;;;3.90;100.00
32873;BME280;19224;52.462;16.898;2023-02-02T14:34:41;100184.77;;;3.83;100.00
32873;BME280;19224;52.462;16.898;2023-02-02T14:51:42;100254.72;;;3.45;100.00
32873;BME280;19224;52.462;16.898;2023-02-02T14:54:15;100266.99;;;3.27;100.00
32873;BME280;19224;52.462;16.898;2023-02-02T14:56:54;100258.30;;;3.16;100.00
32873;BME280;19224;52.462;16.898;2023-02-02T14:59:37;100258.07;;;3.03;100.00
32873;BME280;19224;52.462;16.898;2023-02-02T15:02:16;100263.16;;;2.90;100.00
32873;BME280;19224;52.462;16.898;2023-02-02T15:04:48;100272.10;;;2.85;100.00
32873;BME280;19224;52.462;16.898;2023-02-02T15:10:02;100289.94;;;2.75;100.00
32873;BME280;19224;52.462;16.898;2023-02-02T15:12:44;100300.62;;;2.74;100.00
32873;BME280;19224;52.462;16.898;2023-02-02T15:15:26;100299.34;;;2.69;100.00
32873;BME280;19224;52.462;16.898;2023-02-02T15:18:14;100305.34;;;2.83;100.00
32873;BME280;19224;52.462;16.898;2023-02-02T15:20:48;100304.09;;;2.77;100.00
32873;BME280;19224;52.462;16.898;2023-02-02T15:23:41;100318.20;;;2.84;100.00
32873;BME280;19224;52.462;16.898;2023-02-02T15:26:32;100321.07;;;3.00;100.00
32873;BME280;19224;52.462;16.898;2023-02-02T15:29:32;100320.63;;;3.00;100.00
32873;BME280;19224;52.462;16.898;2023-02-02T15:31:50;100336.02;;;3.08;100.00
32873;BME280;19224;52.462;16.898;2023-02-02T15:34:32;100332.51;;;3.05;100.00
32873;BME280;19224;52.462;16.898;2023-02-02T15:37:04;100337.39;;;3.07;100.00
32873;BME280;19224;52.462;16.898;2023-02-02T15:39:48;100345.42;;;3.02;100.00
32873;BME280;19224;52.462;16.898;2023-02-02T15:42:33;100365.16;;;3.16;100.00